createdAt,value
2022-08-05T00:04:33.516Z,6.20
2022-08-05T00:09:37.209Z,6.15
2022-08-05T00:14:42.265Z,5.80
2022-08-05T00:20:02.444Z,5.80
2022-08-05T00:25:08.370Z,5.30
2022-08-05T00:30:17.669Z,5.60
2022-08-05T00:35:21.698Z,5.25
2022-08-05T00:40:51.911Z,6.53
2022-08-05T00:45:58.401Z,4.93
2022-08-05T00:51:02.831Z,6.47
2022-08-05T00:56:26.493Z,5.20
2022-08-05T01:01:42.916Z,5.30
2022-08-05T01:06:52.957Z,5.25
2022-08-05T01:12:09.263Z,5.47
2022-08-05T01:17:29.165Z,5.63
2022-08-05T01:22:57.182Z,5.47
2022-08-05T01:28:16.766Z,5.45
2022-08-05T01:33:25.247Z,5.90
2022-08-05T01:38:31.039Z,5.45
2022-08-05T01:43:37.423Z,5.40
2022-08-05T01:48:49.775Z,5.05
2022-08-05T01:53:58.542Z,4.38
2022-08-05T01:59:08.007Z,4.90
2022-08-05T02:04:13.125Z,4.57
2022-08-05T02:09:17.037Z,4.50
2022-08-05T02:14:32.080Z,4.80
2022-08-05T02:19:46.934Z,4.78
2022-08-05T02:24:53.595Z,5.30
2022-08-05T02:30:02.168Z,5.53
2022-08-05T02:35:14.197Z,4.75
2022-08-05T02:40:18.591Z,5.47
2022-08-05T02:45:25.668Z,6.35
2022-08-05T02:50:30.421Z,5.40
2022-08-05T02:55:54.688Z,5.10
2022-08-05T03:01:02.667Z,5.32
2022-08-05T03:06:56.224Z,4.72
2022-08-05T03:11:56.530Z,4.72
2022-08-05T03:16:55.761Z,4.88
2022-08-05T03:21:59.581Z,5.13
2022-08-05T03:27:03.442Z,4.40
2022-08-05T03:32:12.452Z,4.63
2022-08-05T03:37:18.125Z,4.63
2022-08-05T03:42:22.002Z,4.80
2022-08-05T03:47:35.204Z,4.60
2022-08-05T03:55:34.516Z,4.55
2022-08-05T03:58:17.513Z,4.97
2022-08-05T04:03:28.243Z,4.90
2022-08-05T04:08:36.250Z,5.20
2022-08-05T04:13:50.421Z,4.22
2022-08-05T04:18:57.796Z,4.65
2022-08-05T04:24:06.700Z,4.72
2022-08-05T04:29:12.864Z,4.75
2022-08-05T04:34:33.117Z,5.97
2022-08-05T04:39:39.153Z,5.75
2022-08-05T04:44:43.673Z,5.80
2022-08-05T04:50:01.474Z,6.07
2022-08-05T04:55:14.413Z,6.25
2022-08-05T05:00:19.359Z,7.15
2022-08-05T05:05:29.406Z,6.93
2022-08-05T05:10:34.711Z,6.95
2022-08-05T05:21:04.350Z,6.30
2022-08-05T05:26:09.348Z,7.15
2022-08-05T05:31:13.355Z,5.60
2022-08-05T05:36:18.478Z,6.22
2022-08-05T05:41:23.395Z,6.05
2022-08-05T05:46:27.775Z,6.20
2022-08-05T05:51:49.586Z,5.32
2022-08-05T05:56:53.734Z,5.50
2022-08-05T06:01:58.183Z,5.10
2022-08-05T06:07:03.831Z,10.25
2022-08-05T06:12:09.515Z,4.40
2022-08-05T06:17:22.334Z,4.70
2022-08-05T06:22:33.304Z,4.57
2022-08-05T06:28:12.138Z,4.22
2022-08-05T06:33:01.873Z,4.40
2022-08-05T06:38:11.199Z,3.92
2022-08-05T06:43:59.228Z,7.28
2022-08-05T06:48:56.888Z,3.97
2022-08-05T06:54:05.528Z,4.45
2022-08-05T06:59:14.545Z,18.92
2022-08-05T07:04:24.378Z,5.78
2022-08-05T07:09:32.392Z,3.75
2022-08-05T07:15:10.295Z,3.60
2022-08-05T07:20:32.868Z,3.47
2022-08-05T07:25:56.493Z,3.45
2022-08-05T07:31:01.172Z,3.80
2022-08-05T07:36:21.498Z,3.60
2022-08-05T07:42:13.860Z,3.40
2022-08-05T07:47:01.764Z,3.50
2022-08-05T07:52:11.766Z,3.80
2022-08-05T07:57:41.678Z,3.10
2022-08-05T08:08:07.919Z,3.17
2022-08-05T08:13:21.983Z,3.20
2022-08-05T08:18:33.097Z,3.17
2022-08-05T08:24:01.457Z,3.40
2022-08-05T08:29:29.504Z,3.70
2022-08-05T08:34:30.867Z,3.60
2022-08-05T08:39:38.165Z,3.20
2022-08-05T08:45:25.273Z,4.07
2022-08-05T08:50:32.220Z,5.70
2022-08-05T08:56:02.849Z,2.78
2022-08-05T09:06:27.847Z,2.90
2022-08-05T09:11:50.724Z,3.90
2022-08-05T09:16:59.152Z,3.00
2022-08-05T09:22:24.908Z,3.08
2022-08-05T09:28:05.219Z,3.05
2022-08-05T09:33:04.542Z,3.30
2022-08-05T09:38:17.763Z,2.40
2022-08-05T09:43:40.249Z,4.68
2022-08-05T09:49:06.552Z,2.90
2022-08-05T09:54:11.556Z,4.47
2022-08-05T09:59:18.636Z,3.17
2022-08-05T10:04:41.088Z,5.55
2022-08-05T10:10:14.212Z,4.95
2022-08-05T10:15:25.647Z,3.20
2022-08-05T10:20:33.084Z,2.83
2022-08-05T10:25:37.190Z,4.95
2022-08-05T10:32:47.137Z,3.10
2022-08-05T10:36:07.187Z,3.07
2022-08-05T10:41:23.665Z,3.13
2022-08-05T10:46:44.375Z,4.97
2022-08-05T10:52:10.250Z,3.30
2022-08-05T10:57:29.693Z,3.55
2022-08-05T11:02:38.765Z,3.83
2022-08-05T11:08:17.087Z,3.05
2022-08-05T11:13:54.923Z,3.28
2022-08-05T11:20:10.613Z,3.10
2022-08-05T11:26:05.735Z,3.35
2022-08-05T11:31:58.023Z,9.07
2022-08-05T11:36:54.910Z,3.15
2022-08-05T11:42:04.554Z,3.60
2022-08-05T11:47:15.239Z,2.90
2022-08-05T11:52:29.036Z,3.40
2022-08-05T11:57:39.339Z,3.55
2022-08-05T12:02:58.770Z,5.43
2022-08-05T12:08:09.840Z,3.22
2022-08-05T12:13:18.818Z,3.70
2022-08-05T12:18:42.727Z,3.10
2022-08-05T12:23:54.954Z,3.42
2022-08-05T12:28:58.603Z,3.70
2022-08-05T12:34:05.018Z,3.45
2022-08-05T12:39:11.277Z,3.20
2022-08-05T12:44:28.494Z,2.97
2022-08-05T12:50:04.652Z,3.05
2022-08-05T12:55:22.363Z,3.00
2022-08-05T13:02:02.756Z,3.05
2022-08-05T13:05:55.200Z,2.92
2022-08-05T13:11:01.736Z,3.15
2022-08-05T13:16:15.364Z,3.67
2022-08-05T13:21:22.702Z,2.97
2022-08-05T13:26:32.325Z,2.88
2022-08-05T13:32:03.846Z,3.05
2022-08-05T13:37:02.346Z,2.88
2022-08-05T13:42:06.446Z,3.33
2022-08-05T13:47:10.495Z,2.60
2022-08-05T13:52:38.785Z,2.88
2022-08-05T13:57:50.775Z,2.63
2022-08-05T14:02:57.070Z,3.45
2022-08-05T14:08:20.269Z,3.17
2022-08-05T14:13:25.715Z,2.97
2022-08-05T14:18:30.264Z,2.95
2022-08-05T14:23:37.265Z,3.13
2022-08-05T14:28:52.298Z,3.13
2022-08-05T14:34:00.551Z,2.60
2022-08-05T14:39:06.896Z,2.80
2022-08-05T14:44:21.759Z,2.55
2022-08-05T14:49:25.749Z,2.80
2022-08-05T14:54:52.925Z,2.42
2022-08-05T14:59:57.174Z,3.00
2022-08-05T15:05:02.490Z,2.45
2022-08-05T15:10:18.467Z,2.55
2022-08-05T15:15:55.049Z,2.60
2022-08-05T15:20:56.492Z,2.50
2022-08-05T15:26:03.087Z,3.00
2022-08-05T15:31:07.096Z,2.90
2022-08-05T15:36:17.746Z,2.80
2022-08-05T15:41:55.838Z,2.70
2022-08-05T15:46:53.913Z,2.80
2022-08-05T15:52:13.239Z,3.22
2022-08-05T15:57:24.884Z,2.65
2022-08-05T16:02:31.871Z,2.78
2022-08-05T16:07:36.305Z,3.00
2022-08-05T16:12:41.645Z,2.67
2022-08-05T16:17:57.314Z,2.92
2022-08-05T16:23:02.033Z,3.13
2022-08-05T16:28:09.440Z,7.97
2022-08-05T16:33:14.274Z,9.50
2022-08-05T16:38:25.655Z,3.88
2022-08-05T16:43:34.880Z,5.03
2022-08-05T16:48:39.279Z,4.30
2022-08-05T16:59:10.295Z,4.38
2022-08-05T17:04:15.035Z,4.32
2022-08-05T17:09:19.168Z,4.82
2022-08-05T17:14:36.773Z,4.97
2022-08-05T17:19:45.603Z,4.68
2022-08-05T17:24:58.136Z,4.28
2022-08-05T17:30:12.146Z,4.82
2022-08-05T17:35:23.028Z,4.40
2022-08-05T17:40:26.857Z,4.70
2022-08-05T17:45:38.600Z,4.53
2022-08-05T17:50:43.154Z,4.43
2022-08-05T17:55:46.796Z,4.95
2022-08-05T18:00:51.908Z,4.78
2022-08-05T18:06:04.014Z,5.28
2022-08-05T18:11:08.362Z,6.88
2022-08-05T18:16:20.240Z,4.85
2022-08-05T18:21:26.148Z,4.80
2022-08-05T18:26:32.090Z,5.05
2022-08-05T18:31:38.002Z,6.13
2022-08-05T18:36:46.907Z,5.63
2022-08-05T18:42:01.232Z,5.60
2022-08-05T18:47:12.198Z,5.22
2022-08-05T18:52:35.949Z,6.00
2022-08-05T18:57:43.678Z,6.97
2022-08-05T19:03:04.006Z,6.35
2022-08-05T19:08:12.271Z,5.28
2022-08-05T19:13:20.447Z,5.50
2022-08-05T19:18:25.675Z,5.32
2022-08-05T19:24:06.525Z,4.95
2022-08-05T19:28:55.496Z,5.45
2022-08-05T19:34:02.268Z,5.30
2022-08-05T19:39:07.648Z,7.63
2022-08-05T19:44:13.408Z,4.90
2022-08-05T19:49:19.308Z,5.45
2022-08-05T19:54:29.487Z,7.30
2022-08-05T19:59:59.467Z,7.60
2022-08-05T20:05:01.105Z,6.35
2022-08-05T20:10:13.157Z,7.22
2022-08-05T20:15:23.374Z,7.70
2022-08-05T20:20:46.724Z,6.68
2022-08-05T20:25:52.316Z,6.85
2022-08-05T20:30:57.358Z,8.02
2022-08-05T20:36:03.051Z,7.32
2022-08-05T20:41:08.061Z,7.72
2022-08-05T20:46:18.248Z,8.45
2022-08-05T20:51:23.861Z,7.75
2022-08-05T20:56:29.829Z,7.72
2022-08-05T21:01:38.671Z,7.43
2022-08-05T21:06:45.514Z,7.38
2022-08-05T21:12:09.644Z,7.45
2022-08-05T21:17:13.769Z,7.80
2022-08-05T21:22:23.509Z,9.30
2022-08-05T21:27:28.095Z,9.02
2022-08-05T21:32:42.484Z,10.50
2022-08-05T21:37:53.282Z,8.18
2022-08-05T21:42:59.064Z,7.57
2022-08-05T21:48:09.973Z,7.90
2022-08-05T21:54:18.159Z,8.57
2022-08-05T22:00:14.411Z,8.48
2022-08-05T22:05:27.419Z,9.10
2022-08-05T22:10:46.496Z,8.45
2022-08-05T22:21:50.750Z,8.95
2022-08-05T22:27:16.672Z,9.10
2022-08-05T22:32:21.055Z,8.57
2022-08-05T22:37:58.051Z,9.85
2022-08-05T22:42:57.808Z,9.23
2022-08-05T22:48:01.954Z,9.48
2022-08-05T22:53:09.852Z,7.55
2022-08-05T22:58:15.009Z,6.88
2022-08-05T23:03:58.833Z,7.00
2022-08-05T23:08:55.651Z,9.80
2022-08-05T23:14:22.394Z,9.80
2022-08-05T23:19:26.427Z,9.27
2022-08-05T23:24:30.196Z,8.55
2022-08-05T23:29:35.202Z,8.40
2022-08-05T23:34:40.420Z,9.00
2022-08-05T23:39:53.680Z,8.75
2022-08-05T23:44:59.072Z,8.20
2022-08-05T23:55:13.200Z,9.13
